createdAt,value
2019-03-27T00:03:18.066Z,33.33
2019-03-27T00:07:27.943Z,13.67
2019-03-27T00:11:37.592Z,12.57
2019-03-27T00:15:47.243Z,11.70
2019-03-27T00:19:56.890Z,12.80
2019-03-27T00:24:06.883Z,12.50
2019-03-27T00:28:16.630Z,14.80
2019-03-27T00:32:26.682Z,37.70
2019-03-27T00:36:36.083Z,23.43
2019-03-27T00:40:45.698Z,13.57
2019-03-27T00:44:55.631Z,13.30
2019-03-27T00:49:05.039Z,21.73
2019-03-27T00:53:14.363Z,19.53
2019-03-27T00:57:23.967Z,24.80
2019-03-27T01:01:33.625Z,14.10
2019-03-27T01:05:43.010Z,22.30
2019-03-27T01:09:52.735Z,24.53
2019-03-27T01:14:02.126Z,19.07
2019-03-27T01:18:11.446Z,49.87
2019-03-27T01:22:20.783Z,60.30
2019-03-27T01:26:30.402Z,38.73
2019-03-27T01:30:39.732Z,102.30
2019-03-27T01:34:49.605Z,27.20
2019-03-27T01:38:58.935Z,18.50
2019-03-27T01:43:08.259Z,28.70
2019-03-27T01:47:17.935Z,13.43
2019-03-27T01:51:27.238Z,13.47
2019-03-27T01:55:36.579Z,13.80
2019-03-27T01:59:46.711Z,16.30
2019-03-27T02:03:56.023Z,28.20
2019-03-27T02:08:05.427Z,17.70
2019-03-27T02:12:15.147Z,20.87
2019-03-27T02:16:25.091Z,15.30
2019-03-27T02:20:34.403Z,16.10
2019-03-27T02:24:43.711Z,14.63
2019-03-27T02:28:53.022Z,19.13
2019-03-27T02:33:02.681Z,22.83
2019-03-27T02:37:12.226Z,15.93
2019-03-27T02:41:21.535Z,18.50
2019-03-27T02:45:30.924Z,18.67
2019-03-27T02:49:41.076Z,18.40
2019-03-27T02:53:50.401Z,16.67
2019-03-27T02:57:59.714Z,17.30
2019-03-27T03:02:09.189Z,21.53
2019-03-27T03:06:18.502Z,26.00
2019-03-27T03:10:27.903Z,24.47
2019-03-27T03:14:37.217Z,24.93
2019-03-27T03:18:46.787Z,22.70
2019-03-27T03:22:56.091Z,22.93
2019-03-27T03:27:05.787Z,25.27
2019-03-27T03:31:15.182Z,26.83
2019-03-27T03:35:24.784Z,22.93
2019-03-27T03:39:34.086Z,28.30
2019-03-27T03:43:43.680Z,18.13
2019-03-27T03:47:53.328Z,19.07
2019-03-27T03:52:03.210Z,21.60
2019-03-27T03:56:14.074Z,21.33
2019-03-27T04:00:23.460Z,20.97
2019-03-27T04:04:34.921Z,23.70
2019-03-27T04:08:44.243Z,19.73
2019-03-27T04:12:53.563Z,25.17
2019-03-27T04:17:16.098Z,21.97
2019-03-27T04:21:14.542Z,22.53
2019-03-27T04:25:24.190Z,23.30
2019-03-27T04:29:33.487Z,23.60
2019-03-27T04:33:43.044Z,21.53
2019-03-27T04:37:52.678Z,22.10
2019-03-27T04:42:01.976Z,21.43
2019-03-27T04:46:11.288Z,21.43
2019-03-27T04:50:20.867Z,21.47
2019-03-27T04:54:30.443Z,22.63
2019-03-27T04:58:39.755Z,23.10
2019-03-27T05:02:49.075Z,30.83
2019-03-27T05:06:58.382Z,19.83
2019-03-27T05:11:07.694Z,19.27
2019-03-27T05:15:17.070Z,20.80
2019-03-27T05:19:26.388Z,23.20
2019-03-27T05:23:35.694Z,20.67
2019-03-27T05:27:45.006Z,26.53
2019-03-27T05:31:54.338Z,28.83
2019-03-27T05:36:03.646Z,29.70
2019-03-27T05:40:13.118Z,24.03
2019-03-27T05:44:22.428Z,22.93
2019-03-27T05:48:32.126Z,24.07
2019-03-27T05:52:41.806Z,24.13
2019-03-27T05:56:51.813Z,29.77
2019-03-27T06:01:01.355Z,22.80
2019-03-27T06:05:11.069Z,28.60
2019-03-27T06:09:20.662Z,27.50
2019-03-27T06:13:29.982Z,21.10
2019-03-27T06:17:39.574Z,19.70
2019-03-27T06:21:48.903Z,24.17
2019-03-27T06:25:58.211Z,22.90
2019-03-27T06:30:08.696Z,25.97
2019-03-27T06:34:17.999Z,26.37
2019-03-27T06:38:27.305Z,27.07
2019-03-27T06:42:36.605Z,23.33
2019-03-27T06:46:45.906Z,25.57
2019-03-27T06:50:55.218Z,29.10
2019-03-27T06:55:05.287Z,30.20
2019-03-27T06:59:14.878Z,26.83
2019-03-27T07:03:24.191Z,23.87
2019-03-27T07:07:33.738Z,28.20
2019-03-27T07:11:43.125Z,28.97
2019-03-27T07:15:52.465Z,34.10
2019-03-27T07:20:01.954Z,24.17
2019-03-27T07:24:11.267Z,26.67
2019-03-27T07:28:20.581Z,26.70
2019-03-27T07:32:29.888Z,27.57
2019-03-27T07:36:39.450Z,25.33
2019-03-27T07:40:49.416Z,21.80
2019-03-27T07:44:58.729Z,29.57
2019-03-27T07:49:08.042Z,30.13
2019-03-27T07:53:17.506Z,29.00
2019-03-27T07:57:26.823Z,34.30
2019-03-27T08:01:36.466Z,35.43
2019-03-27T08:05:46.067Z,30.13
2019-03-27T08:09:55.743Z,30.67
2019-03-27T08:14:05.086Z,44.10
2019-03-27T08:18:14.391Z,38.30
2019-03-27T08:22:23.698Z,50.73
2019-03-27T08:26:33.330Z,67.83
2019-03-27T08:30:42.645Z,43.37
2019-03-27T08:34:52.214Z,42.13
2019-03-27T08:39:01.540Z,57.07
2019-03-27T08:43:21.067Z,40.60
2019-03-27T08:47:21.897Z,34.47
2019-03-27T08:51:31.277Z,47.83
2019-03-27T08:55:40.915Z,33.43
2019-03-27T08:59:50.909Z,32.70
2019-03-27T09:04:00.227Z,26.70
2019-03-27T09:08:09.943Z,17.13
2019-03-27T09:12:19.331Z,20.37
2019-03-27T09:16:28.652Z,26.87
2019-03-27T09:20:37.968Z,17.63
2019-03-27T09:24:47.552Z,20.17
2019-03-27T09:28:57.488Z,15.37
2019-03-27T09:33:06.918Z,21.37
2019-03-27T09:37:16.315Z,17.23
2019-03-27T09:41:25.622Z,17.37
2019-03-27T09:45:35.283Z,19.00
2019-03-27T09:49:49.841Z,15.47
2019-03-27T09:53:56.099Z,18.40
2019-03-27T09:58:05.559Z,14.13
2019-03-27T10:02:14.866Z,14.33
2019-03-27T10:06:24.554Z,15.87
2019-03-27T10:10:33.970Z,13.33
2019-03-27T10:14:43.294Z,16.17
2019-03-27T10:18:53.014Z,14.80
2019-03-27T10:23:02.337Z,12.57
2019-03-27T10:27:11.658Z,10.87
2019-03-27T10:31:21.162Z,13.67
2019-03-27T10:35:30.470Z,13.80
2019-03-27T10:39:40.136Z,28.30
2019-03-27T10:43:49.455Z,33.50
2019-03-27T10:47:58.782Z,48.93
2019-03-27T10:52:08.111Z,46.07
2019-03-27T10:56:18.014Z,58.13
2019-03-27T11:00:27.343Z,46.97
2019-03-27T11:04:36.655Z,39.03
2019-03-27T11:08:45.978Z,21.00
2019-03-27T11:12:55.307Z,14.33
2019-03-27T11:17:05.851Z,14.27
2019-03-27T11:21:15.164Z,14.60
2019-03-27T11:25:24.638Z,14.07
2019-03-27T11:29:34.039Z,13.33
2019-03-27T11:33:43.388Z,12.87
2019-03-27T11:37:53.302Z,14.10
2019-03-27T11:42:02.951Z,14.97
2019-03-27T11:46:12.271Z,14.17
2019-03-27T11:50:21.955Z,11.80
2019-03-27T11:54:31.274Z,20.57
2019-03-27T11:58:41.359Z,15.17
2019-03-27T12:02:51.028Z,14.90
2019-03-27T12:07:00.345Z,19.10
2019-03-27T12:11:10.066Z,15.17
2019-03-27T12:15:36.435Z,12.80
2019-03-27T12:19:45.754Z,15.53
2019-03-27T12:23:55.788Z,12.23
2019-03-27T12:28:05.336Z,14.93
2019-03-27T12:32:14.963Z,14.60
2019-03-27T12:36:24.327Z,18.13
2019-03-27T12:40:34.547Z,15.40
2019-03-27T12:44:44.127Z,14.30
2019-03-27T12:48:53.430Z,14.27
2019-03-27T12:53:02.823Z,15.97
2019-03-27T12:57:12.121Z,21.63
2019-03-27T13:01:21.528Z,18.20
2019-03-27T13:05:30.872Z,17.30
2019-03-27T13:09:40.183Z,20.47
2019-03-27T13:13:49.858Z,14.73
2019-03-27T13:17:59.305Z,15.50
2019-03-27T13:22:08.598Z,19.03
2019-03-27T13:26:18.205Z,13.10
2019-03-27T13:30:27.926Z,19.60
2019-03-27T13:34:37.247Z,16.50
2019-03-27T13:38:46.883Z,13.80
2019-03-27T13:42:56.584Z,15.47
2019-03-27T13:47:05.999Z,14.03
2019-03-27T13:51:15.883Z,21.00
2019-03-27T13:55:25.191Z,15.77
2019-03-27T13:59:34.514Z,13.67
2019-03-27T14:03:44.221Z,19.60
2019-03-27T14:07:53.549Z,15.20
2019-03-27T14:12:03.215Z,15.27
2019-03-27T14:16:12.627Z,13.07
2019-03-27T14:20:22.421Z,14.57
2019-03-27T14:24:31.813Z,20.33
2019-03-27T14:28:41.139Z,16.33
2019-03-27T14:32:50.482Z,20.87
2019-03-27T14:36:59.802Z,20.30
2019-03-27T14:41:09.271Z,14.97
2019-03-27T14:45:18.583Z,15.80
2019-03-27T14:49:27.899Z,16.50
2019-03-27T14:53:37.994Z,18.33
2019-03-27T14:57:47.570Z,17.50
2019-03-27T15:01:57.155Z,15.77
2019-03-27T15:06:07.211Z,16.43
2019-03-27T15:10:17.075Z,54.33
2019-03-27T15:14:27.363Z,16.67
2019-03-27T15:18:37.183Z,19.10
2019-03-27T15:22:46.498Z,27.50
2019-03-27T15:26:56.156Z,19.63
2019-03-27T15:31:19.476Z,26.63
2019-03-27T15:35:16.747Z,18.73
2019-03-27T15:39:26.316Z,18.43
2019-03-27T15:43:35.627Z,30.67
2019-03-27T15:47:44.947Z,20.27
2019-03-27T15:51:54.513Z,24.80
2019-03-27T15:56:04.098Z,21.33
2019-03-27T16:00:14.571Z,28.73
2019-03-27T16:04:23.974Z,44.67
2019-03-27T16:08:33.274Z,26.70
2019-03-27T16:12:43.420Z,48.40
2019-03-27T16:17:11.827Z,24.73
2019-03-27T16:21:03.820Z,46.63
2019-03-27T16:25:13.410Z,34.87
2019-03-27T16:29:22.788Z,32.57
2019-03-27T16:33:32.395Z,25.43
2019-03-27T16:37:42.159Z,26.27
2019-03-27T16:41:51.479Z,27.77
2019-03-27T16:46:01.143Z,24.53
2019-03-27T16:50:10.730Z,25.80
2019-03-27T16:54:20.054Z,27.37
2019-03-27T16:58:29.383Z,27.30
2019-03-27T17:02:38.686Z,21.90
2019-03-27T17:06:48.004Z,24.03
2019-03-27T17:10:57.334Z,35.90
2019-03-27T17:15:07.037Z,28.60
2019-03-27T17:19:16.622Z,78.90
2019-03-27T17:23:25.958Z,28.20
2019-03-27T17:27:35.612Z,25.53
2019-03-27T17:31:45.311Z,22.50
2019-03-27T17:35:55.016Z,27.33
2019-03-27T17:40:05.075Z,22.70
2019-03-27T17:44:14.402Z,27.30
2019-03-27T17:48:23.773Z,28.20
2019-03-27T17:52:33.419Z,28.83
2019-03-27T17:56:43.070Z,22.50
2019-03-27T18:00:55.486Z,26.73
2019-03-27T18:05:05.522Z,21.50
2019-03-27T18:09:14.847Z,22.13
2019-03-27T18:13:24.266Z,19.70
2019-03-27T18:17:33.658Z,26.47
2019-03-27T18:21:43.335Z,25.87
2019-03-27T18:25:52.755Z,23.70
2019-03-27T18:30:02.061Z,30.70
2019-03-27T18:34:11.669Z,79.43
2019-03-27T18:38:21.116Z,33.23
2019-03-27T18:42:30.774Z,27.57
2019-03-27T18:46:40.430Z,23.63
2019-03-27T18:50:50.627Z,28.67
2019-03-27T18:55:00.452Z,31.03
2019-03-27T18:59:09.834Z,29.73
2019-03-27T19:03:19.523Z,31.70
2019-03-27T19:07:29.517Z,33.63
2019-03-27T19:11:38.834Z,25.53
2019-03-27T19:15:48.520Z,34.27
2019-03-27T19:19:57.830Z,31.70
2019-03-27T19:24:13.519Z,29.50
2019-03-27T19:28:18.178Z,34.73
2019-03-27T19:32:27.486Z,28.87
2019-03-27T19:36:36.795Z,28.17
2019-03-27T19:40:46.415Z,32.07
2019-03-27T19:44:55.726Z,32.43
2019-03-27T19:49:05.198Z,30.63
2019-03-27T19:53:14.518Z,29.20
2019-03-27T19:57:24.219Z,29.27
2019-03-27T20:01:33.848Z,31.37
2019-03-27T20:05:43.236Z,28.53
2019-03-27T20:09:52.571Z,30.03
2019-03-27T20:14:01.902Z,32.50
2019-03-27T20:18:11.220Z,28.93
2019-03-27T20:22:20.532Z,34.37
2019-03-27T20:26:29.825Z,29.10
2019-03-27T20:30:39.214Z,36.27
2019-03-27T20:34:48.834Z,31.27
2019-03-27T20:38:58.462Z,27.60
2019-03-27T20:43:08.519Z,30.60
2019-03-27T20:47:18.190Z,30.20
2019-03-27T20:51:27.745Z,28.97
2019-03-27T20:55:37.082Z,26.63
2019-03-27T20:59:46.440Z,32.37
2019-03-27T21:03:55.931Z,26.53
2019-03-27T21:08:05.321Z,112.57
2019-03-27T21:12:14.959Z,102.33
2019-03-27T21:16:24.383Z,122.90
2019-03-27T21:20:33.974Z,89.17
2019-03-27T21:24:43.608Z,41.03
2019-03-27T21:28:53.253Z,33.07
2019-03-27T21:33:02.919Z,50.90
2019-03-27T21:37:12.759Z,26.37
2019-03-27T21:41:22.583Z,36.30
2019-03-27T21:45:32.341Z,72.80
2019-03-27T21:49:41.893Z,87.83
2019-03-27T21:53:51.309Z,42.00
2019-03-27T21:58:01.230Z,33.83
2019-03-27T22:02:11.150Z,91.77
2019-03-27T22:06:20.462Z,53.43
2019-03-27T22:10:30.231Z,31.10
2019-03-27T22:14:39.578Z,30.87
2019-03-27T22:18:48.974Z,69.47
2019-03-27T22:22:58.299Z,34.53
2019-03-27T22:27:07.616Z,44.77
2019-03-27T22:31:17.088Z,40.27
2019-03-27T22:35:26.521Z,51.33
2019-03-27T22:39:35.846Z,31.37
2019-03-27T22:43:45.406Z,26.70
2019-03-27T22:47:54.768Z,71.23
2019-03-27T22:52:04.279Z,35.03
2019-03-27T22:56:14.093Z,44.80
2019-03-27T23:00:32.027Z,38.70
2019-03-27T23:04:41.629Z,34.37
2019-03-27T23:08:50.939Z,34.10
2019-03-27T23:13:00.263Z,30.70
2019-03-27T23:17:09.726Z,36.30
2019-03-27T23:21:19.046Z,33.10
2019-03-27T23:25:28.579Z,30.87
2019-03-27T23:29:37.894Z,28.70
2019-03-27T23:33:47.446Z,28.20
2019-03-27T23:37:56.757Z,30.00
2019-03-27T23:42:06.066Z,27.73
2019-03-27T23:46:15.369Z,28.47
2019-03-27T23:50:25.176Z,30.07
2019-03-27T23:54:34.564Z,27.70
2019-03-27T23:58:44.350Z,25.37
